Maersk Palermo — PDHW — position and weather

sailwx.info

Track history (hours):
 
Tides and Currents Weather Stations Pressure Air Temp Water Temp Dewpoint Dewpoint Depression Visibility Wind Speed Wind Dir Waves Ship Positions

Maersk Palermo

Last reported at 2018-Feb-22 15:00 UTC. Time now 2018-Feb-22 15:15 UTC.
Position N 51°22' E 004°14'.

Length 210 m; beam 32 m.

Type: Ship (hazmat cat B). MMSI: 244118000.

Date/timePositionNaut miles runAvg speedWind from/ knotsBaromVisibWave heightAir tempDewpointWater temp
2018-Feb-22 15:00N 51°22' E 004°14'2 3.4
2018-Feb-22 14:30N 51°21' E 004°16'3 6.3
2018-Feb-22 14:00N 51°24' E 004°18'3433.6 1021.9
2018-Feb-22 13:59N 51°21' E 004°16'0 0.0
2018-Feb-22 13:30N 51°21' E 004°16'0 0.0
2018-Feb-22 13:01N 51°21' E 004°16'3192.0
2018-Feb-22 13:00N 51°24' E 004°18'3 6.7 1022.9
2018-Feb-22 12:30N 51°21' E 004°16'0 0.0
2018-Feb-22 12:00N 51°21' E 004°16'3220.9
2018-Feb-22 12:00N 51°24' E 004°18'3 6.6 1023.4
2018-Feb-22 11:30N 51°21' E 004°16'3 6.5
2018-Feb-22 11:00N 51°24' E 004°18'3106.5 1023.6
2018-Feb-22 10:58N 51°21' E 004°16'0 0.0
2018-Feb-22 10:30N 51°21' E 004°16'0 0.0
2018-Feb-22 10:00N 51°21' E 004°16'32345.2
2018-Feb-22 10:00N 51°24' E 004°18'3 6.3 1023.6
2018-Feb-22 09:29N 51°21' E 004°16'0 0.0
2018-Feb-22 09:00N 51°21' E 004°16'3732.0
2018-Feb-22 09:00N 51°24' E 004°18'3 6.7 1023.5
2018-Feb-22 08:31N 51°21' E 004°16'3 6.3
2018-Feb-22 08:00N 51°24' E 004°18'3167.5 1023.4
2018-Feb-22 07:58N 51°21' E 004°16'0 0.0
2018-Feb-22 07:30N 51°21' E 004°16'3 6.4
2018-Feb-22 07:00N 51°24' E 004°18'3155.9 1022.9
2018-Feb-22 06:58N 51°21' E 004°16'0 0.0
2018-Feb-22 06:30N 51°21' E 004°16'0 0.0
2018-Feb-22 06:01N 51°21' E 004°16'3188.4
2018-Feb-22 06:00N 51°24' E 004°18'3 6.2 1022.5
2018-Feb-22 05:28N 51°21' E 004°16'0 0.0
2018-Feb-22 05:01N 51°21' E 004°16'3188.7
2018-Feb-22 05:00N 51°24' E 004°18'3 6.4 1022.5
2018-Feb-22 04:29N 51°21' E 004°16'3 6.7
2018-Feb-22 04:00N 51°24' E 004°18'3229.5 1022.6
2018-Feb-22 03:59N 51°21' E 004°16'0 0.0
2018-Feb-22 03:31N 51°21' E 004°16'0 0.0
2018-Feb-22 03:00N 51°21' E 004°16'3201.9
2018-Feb-22 03:00N 51°24' E 004°18'3 6.7 1022.7
2018-Feb-22 02:31N 51°21' E 004°16'0 0.0
2018-Feb-22 02:00N 51°21' E 004°16'3209.1
2018-Feb-22 02:00N 51°24' E 004°18'3 6.7 1023.0
2018-Feb-22 01:30N 51°21' E 004°16'0 0.0
2018-Feb-22 01:00N 51°21' E 004°16'3272.2
2018-Feb-22 01:00N 51°24' E 004°18'4 7.5 1023.3
2018-Feb-22 00:30N 51°21' E 004°14'3 6.7
2018-Feb-22 00:00N 51°23' E 004°10'2103.9
2018-Feb-22 00:00N 51°24' E 004°12'612.8 1023.4
2018-Feb-21 23:30N 51°23' E 004°02'3 6.0
2018-Feb-21 23:00N 51°24' E 003°57'2138.7
2018-Feb-21 23:00N 51°24' E 004°00'714.8 1023.7
2018-Feb-21 22:30N 51°21' E 003°50'612.3
2018-Feb-21 22:00N 51°25' E 003°42'147.2
2018-Feb-21 22:00N 51°24' E 003°42'510.5 1024.1
2018-Feb-21 21:30N 51°26' E 003°34'5 9.5
2018-Feb-21 21:00N 51°25' E 003°27'2152.3
2018-Feb-21 21:00N 51°24' E 003°24'510.5 1023.8
2018-Feb-21 20:31N 51°24' E 003°16'714.3
2018-Feb-21 20:00N 51°24' E 003°04'161.6
2018-Feb-21 20:00N 51°24' E 003°06'612.4 1023.6
2018-Feb-21 19:30N 51°30' E 003°02'815.9
2018-Feb-21 19:00N 51°36' E 003°10'184.3
2018-Feb-21 19:00N 51°36' E 003°12'815.0 1024.2
2018-Feb-21 18:29N 51°44' E 003°13'510.8
2018-Feb-21 18:00N 51°48' E 003°18'314.9 1024.2
2018-Feb-21 17:48N 51°50' E 003°15'1 2.2
2018-Feb-21 17:28N 51°51' E 003°14'0 0.6
2018-Feb-21 17:00N 51°50' E 003°14'3177.9
2018-Feb-21 17:00N 51°48' E 003°12'2 4.3 1023.9
2018-Feb-21 16:28N 51°50' E 003°14'510.0
2018-Feb-21 16:00N 51°54' E 003°18'6 6.0 1024.2
2018-Feb-21 15:00N 52°00' E 003°18'812.4 1024.3
2018-Feb-21 14:19N 52°03' E 003°31'413.8
2018-Feb-21 14:00N 52°06' E 003°36'3262.7 1024.9
2018-Feb-21 13:59N 52°03' E 003°37'612.0
2018-Feb-21 13:30N 52°03' E 003°46'510.7
2018-Feb-21 13:00N 52°02' E 003°55'2165.1
2018-Feb-21 13:00N 52°00' E 003°54'714.8 1025.6
2018-Feb-21 12:30N 51°58' E 004°05'2 3.5
2018-Feb-21 12:00N 52°00' E 004°06'31127.5 1025.6
2018-Feb-21 11:59N 51°58' E 004°03'0 0.0
2018-Feb-21 11:29N 51°58' E 004°03'3 6.3
2018-Feb-21 11:00N 52°00' E 004°06'3943.7 1025.9
2018-Feb-21 10:59N 51°57' E 004°03'0 0.0
2018-Feb-21 10:29N 51°57' E 004°03'3 6.3
2018-Feb-21 10:00N 52°00' E 004°06'3871.9 1026.3
2018-Feb-21 09:59N 51°57' E 004°03'0 0.0
2018-Feb-21 09:29N 51°57' E 004°03'3 6.3
2018-Feb-21 09:00N 52°00' E 004°06'3754.4 1026.0
2018-Feb-21 08:59N 51°57' E 004°03'0 0.0
2018-Feb-21 08:29N 51°57' E 004°03'3 6.3
2018-Feb-21 08:00N 52°00' E 004°06'3706.9 1025.6
2018-Feb-21 07:59N 51°57' E 004°03'0 0.0
2018-Feb-21 07:29N 51°57' E 004°03'3 6.4
2018-Feb-21 07:00N 52°00' E 004°06'3628.9 1025.1
2018-Feb-21 06:59N 51°57' E 004°03'0 0.0
2018-Feb-21 06:29N 51°57' E 004°03'3 6.3
2018-Feb-21 06:00N 52°00' E 004°06'3565.9 1025.0
2018-Feb-21 05:59N 51°57' E 004°03'0 0.0
2018-Feb-21 05:29N 51°57' E 004°03'3 6.4
2018-Feb-21 05:00N 52°00' E 004°06'3514.7 1024.9
2018-Feb-21 04:59N 51°57' E 004°03'0 0.0
2018-Feb-21 04:29N 51°57' E 004°03'3 6.4
2018-Feb-21 04:00N 52°00' E 004°06'3471.2 1024.8
2018-Feb-21 03:59N 51°57' E 004°03'0 0.0
2018-Feb-21 03:29N 51°57' E 004°03'3 6.4
2018-Feb-21 03:00N 52°00' E 004°06'3434.1 1024.7
2018-Feb-21 02:59N 51°58' E 004°03'0 0.0
2018-Feb-21 02:29N 51°57' E 004°03'3 6.4
2018-Feb-21 02:00N 52°00' E 004°06'3418.6 1024.2
2018-Feb-21 01:59N 51°57' E 004°03'0 0.0
2018-Feb-21 01:29N 51°57' E 004°03'3 6.4
2018-Feb-21 01:00N 52°00' E 004°06'3377.3 1024.0
2018-Feb-21 00:59N 51°57' E 004°03'0 0.0
2018-Feb-21 00:29N 51°57' E 004°03'3 6.4
2018-Feb-21 00:00N 52°00' E 004°06'3364.6 1023.7
2018-Feb-20 23:59N 51°57' E 004°03'0 0.0
2018-Feb-20 23:29N 51°57' E 004°03'3 6.4
2018-Feb-20 23:00N 52°00' E 004°06'3354.2 1023.7
2018-Feb-20 22:59N 51°57' E 004°03'0 0.0
2018-Feb-20 22:29N 51°57' E 004°03'3 6.4
2018-Feb-20 22:00N 52°00' E 004°06'3332.2 1023.2
2018-Feb-20 21:59N 51°58' E 004°03'0 0.1
2018-Feb-20 21:29N 51°57' E 004°03'0 0.0
2018-Feb-20 21:00N 51°58' E 004°03'3205.1
2018-Feb-20 21:00N 52°00' E 004°06'2 4.3 1022.5
2018-Feb-20 20:31N 51°58' E 004°05'612.0
2018-Feb-20 20:01N 52°01' E 003°56'294.9
2018-Feb-20 20:00N 52°00' E 003°54'4 8.9 1020.9
2018-Feb-20 19:30N 52°02' E 003°48'612.5
2018-Feb-20 19:00N 52°08' E 003°46'2127.9
2018-Feb-20 19:00N 52°06' E 003°48'817.3 1021.1
2018-Feb-20 18:30N 52°14' E 003°46'611.7
2018-Feb-20 18:00N 52°20' E 003°48'2134.2
2018-Feb-20 18:00N 52°18' E 003°48'815.9 1020.5
2018-Feb-20 17:30N 52°26' E 003°50'1020.9
2018-Feb-20 17:00N 52°36' E 003°54'3350.3 1020.1
2018-Feb-20 16:59N 52°33' E 003°52'917.4
2018-Feb-20 16:28N 52°42' E 003°55'818.1
2018-Feb-20 16:00N 52°50' E 003°58'41125.9
2018-Feb-20 16:00N 52°54' E 004°00'712.1 1019.5
2018-Feb-20 15:24N 52°60' E 004°06'820.3
2018-Feb-20 15:00N 53°06' E 004°16'193.4
2018-Feb-20 15:00N 53°06' E 004°18'1319.3 1019.7
2018-Feb-20 14:18N 53°18' E 004°29'620.5
2018-Feb-20 14:00N 53°23' E 004°33'2117.1
2018-Feb-20 14:00N 53°24' E 004°36'816.6 1019.6
2018-Feb-20 13:30N 53°30' E 004°45'1020.0
2018-Feb-20 13:01N 53°34' E 005°01'2129.2
2018-Feb-20 13:00N 53°36' E 005°00'1019.8 1019.5
2018-Feb-20 12:30N 53°37' E 005°16'918.5
2018-Feb-20 12:00N 53°42' E 005°30'1918.7 1019.4
2018-Feb-20 11:00N 53°48' E 006°00'1918.7 1019.4
2018-Feb-20 10:00N 53°54' E 006°30'1817.7 1019.2
2018-Feb-20 09:00N 53°54' E 007°00'2222.0 1018.9
2018-Feb-20 08:00N 54°00' E 007°36'1 8.5 1018.9
2018-Feb-20 07:56N 53°59' E 007°36'1017.4
2018-Feb-20 07:22N 53°53' E 007°48'513.9
2018-Feb-20 07:00N 53°52' E 007°56'3222.8
2018-Feb-20 07:00N 53°54' E 008°00'917.9 1019.4
2018-Feb-20 06:30N 53°47' E 008°09'918.3
2018-Feb-20 06:00N 53°41' E 008°21'2131.7
2018-Feb-20 06:00N 53°42' E 008°18'1020.2 1018.8
2018-Feb-20 05:30N 53°36' E 008°31'1 1.0
2018-Feb-20 05:00N 53°35' E 008°31'179.8
2018-Feb-20 05:00N 53°36' E 008°30'1 2.0 1018.6
2018-Feb-20 04:30N 53°35' E 008°31'0 0.0
2018-Feb-20 04:00N 53°35' E 008°31'181.6
2018-Feb-20 04:00N 53°36' E 008°30'1 2.0 1018.5
2018-Feb-20 03:30N 53°35' E 008°31'0 0.0
2018-Feb-20 03:00N 53°35' E 008°31'187.7
2018-Feb-20 03:00N 53°36' E 008°30'1 2.0 1018.3
2018-Feb-20 02:30N 53°35' E 008°31'0 0.0
2018-Feb-20 02:00N 53°35' E 008°31'192.4
2018-Feb-20 02:00N 53°36' E 008°30'1 2.0 1018.2
2018-Feb-20 01:30N 53°35' E 008°31'0 0.0
2018-Feb-20 01:00N 53°35' E 008°31'194.8
2018-Feb-20 01:00N 53°36' E 008°30'1 2.0 1018.3
2018-Feb-20 00:30N 53°35' E 008°31'0 0.0
2018-Feb-20 00:00N 53°35' E 008°31'1100.1
2018-Feb-20 00:00N 53°36' E 008°30'1 2.0 1018.6
2018-Feb-19 23:30N 53°35' E 008°31'0 0.0
2018-Feb-19 23:00N 53°35' E 008°31'1102.9
2018-Feb-19 23:00N 53°36' E 008°30'1 2.0 1018.4
2018-Feb-19 22:30N 53°35' E 008°31'0 0.0
2018-Feb-19 22:00N 53°35' E 008°31'1109.7
2018-Feb-19 22:00N 53°36' E 008°30'1 1.6 1018.5
2018-Feb-19 21:24N 53°35' E 008°31'0 0.0
2018-Feb-19 21:00N 53°35' E 008°31'1117.1
2018-Feb-19 21:00N 53°36' E 008°30'1 2.0 1018.5
2018-Feb-19 20:30N 53°35' E 008°31'1 1.9
2018-Feb-19 20:00N 53°36' E 008°30'123.2 1018.6
2018-Feb-19 19:57N 53°35' E 008°31'0 0.0
2018-Feb-19 19:30N 53°35' E 008°31'0 0.0
2018-Feb-19 19:00N 53°35' E 008°31'1129.5
2018-Feb-19 19:00N 53°36' E 008°30'1 2.0 1018.5
2018-Feb-19 18:30N 53°35' E 008°31'0 0.0
2018-Feb-19 18:00N 53°35' E 008°31'1127.3
2018-Feb-19 18:00N 53°36' E 008°30'1 2.0 1018.3
2018-Feb-19 17:30N 53°35' E 008°31'0 0.0
2018-Feb-19 17:00N 53°35' E 008°31'1153.2
2018-Feb-19 17:00N 53°36' E 008°30'1 1.8 1018.0
2018-Feb-19 16:27N 53°35' E 008°31'0 0.1
2018-Feb-19 16:00N 53°35' E 008°31'1170.7
2018-Feb-19 16:00N 53°36' E 008°30'1 2.0 1017.6
2018-Feb-19 15:30N 53°35' E 008°31'0 0.0
2018-Feb-19 15:00N 53°35' E 008°31'1185.0
2018-Feb-19 15:00N 53°36' E 008°30'1 2.0 1017.7
2018-Feb-19 14:30N 53°35' E 008°31'0 0.0
2018-Feb-19 14:00N 53°35' E 008°31'1195.1
2018-Feb-19 14:00N 53°36' E 008°30'1 2.0 1018.2
2018-Feb-19 13:30N 53°35' E 008°31'0 0.1
2018-Feb-19 13:00N 53°36' E 008°31'1213.7
2018-Feb-19 13:00N 53°36' E 008°30'1 1.9 1018.1
2018-Feb-19 12:30N 53°36' E 008°31'0 0.1
2018-Feb-19 12:00N 53°35' E 008°31'1234.0
2018-Feb-19 12:00N 53°36' E 008°30'1 2.0 1018.8
2018-Feb-19 11:30N 53°35' E 008°31'0 0.0
2018-Feb-19 11:00N 53°35' E 008°31'167.3
2018-Feb-19 11:00N 53°36' E 008°30'2 4.2 1019.0
2018-Feb-19 10:30N 53°38' E 008°28'714.3
2018-Feb-19 10:01N 53°42' E 008°19'139.2
2018-Feb-19 10:00N 53°42' E 008°18'917.8 1018.7
2018-Feb-19 09:30N 53°48' E 008°08'816.9
2018-Feb-19 09:00N 53°52' E 007°55'2154.3
2018-Feb-19 09:00N 53°54' E 007°54'611.9 1018.5
2018-Feb-19 08:30N 53°53' E 007°44'5 9.2
2018-Feb-19 08:00N 53°53' E 007°37'1107.3
2018-Feb-19 08:00N 53°54' E 007°36'4 3.5 1018.9
2018-Feb-19 07:00N 53°54' E 007°30'1 2.2 1019.0
2018-Feb-19 06:25N 53°53' E 007°30'1 1.4
2018-Feb-19 06:00N 53°53' E 007°31'2110.6
2018-Feb-19 06:00N 53°54' E 007°30'3 2.9 1019.1
2018-Feb-19 05:06N 53°52' E 007°33'221.2
2018-Feb-19 05:00N 53°54' E 007°36'2 8.9 1018.9
2018-Feb-19 04:46N 53°52' E 007°34'0 1.3
2018-Feb-19 04:31N 53°52' E 007°35'2 3.6
2018-Feb-19 04:00N 53°54' E 007°36'2 2.4 1019.1
2018-Feb-19 03:06N 53°53' E 007°33'0 0.7
2018-Feb-19 03:00N 53°53' E 007°33'2654.5
2018-Feb-19 03:00N 53°54' E 007°36'0 0.0 1019.6
2018-Feb-19 02:00N 53°54' E 007°36'0 0.0 1019.9
2018-Feb-19 01:00N 53°54' E 007°36'7 7.1 1020.4
2018-Feb-19 00:00N 53°54' E 007°24'1515.4 1020.9
2018-Feb-18 23:00N 53°48' E 007°00'1110.6 1021.4
2018-Feb-18 22:00N 53°48' E 006°42'1110.6 1021.7
2018-Feb-18 21:00N 53°48' E 006°24'1212.2 1021.6
2018-Feb-18 20:00N 53°42' E 006°06'1212.2 1021.7
2018-Feb-18 19:00N 53°36' E 005°48'1012.7 1022.0
2018-Feb-18 18:12N 53°35' E 005°31'1 6.4
2018-Feb-18 18:00N 53°36' E 005°30'439.7 1022.4
2018-Feb-18 17:54N 53°34' E 005°25'512.3
2018-Feb-18 17:30N 53°32' E 005°17'611.8
2018-Feb-18 17:00N 53°30' E 005°08'181.2
2018-Feb-18 17:00N 53°30' E 005°06'4 9.2 1022.1
2018-Feb-18 16:31N 53°29' E 004°59'611.0
2018-Feb-18 16:01N 53°26' E 004°51'3154.8
2018-Feb-18 16:00N 53°24' E 004°48'3 6.3 1022.4
2018-Feb-18 15:30N 53°23' E 004°43'510.4
2018-Feb-18 15:00N 53°19' E 004°38'1125.7
2018-Feb-18 15:00N 53°18' E 004°36'4 8.4 1022.6
2018-Feb-18 14:30N 53°14' E 004°33'510.9
2018-Feb-18 14:00N 53°09' E 004°29'3233.2
2018-Feb-18 14:00N 53°12' E 004°30'816.5 1022.6
2018-Feb-18 13:31N 53°05' E 004°25'510.6
2018-Feb-18 13:00N 52°60' E 004°21'910.6
2018-Feb-18 12:06N 52°51' E 004°14'110.4
2018-Feb-18 12:00N 52°50' E 004°13'2795.4
2018-Feb-18 12:00N 52°48' E 004°12'3 5.7 1023.2
2018-Feb-18 11:30N 52°46' E 004°09'510.3
2018-Feb-18 11:00N 52°42' E 004°03'2356.2
2018-Feb-18 11:00N 52°42' E 004°06'613.4 1023.5
2018-Feb-18 10:31N 52°39' E 003°57'510.3
2018-Feb-18 10:01N 52°35' E 003°51'2114.9
2018-Feb-18 10:00N 52°36' E 003°48'510.4 1023.6
2018-Feb-18 09:30N 52°31' E 003°45'510.6
2018-Feb-18 09:01N 52°28' E 003°39'3167.5
2018-Feb-18 09:00N 52°30' E 003°36'713.6 1023.5
2018-Feb-18 08:30N 52°24' E 003°32'611.1
2018-Feb-18 08:00N 52°20' E 003°26'2156.5
2018-Feb-18 08:00N 52°18' E 003°24'4 7.8 1023.5
2018-Feb-18 07:30N 52°16' E 003°19'611.8
2018-Feb-18 07:00N 52°12' E 003°12'014.4
2018-Feb-18 07:00N 52°12' E 003°12'612.5 1023.4
2018-Feb-18 06:29N 52°08' E 003°04'3 6.5
2018-Feb-18 06:00N 52°06' E 003°00'4101.1 1023.0
2018-Feb-18 05:57N 52°03' E 002°57'1012.7
2018-Feb-18 05:09N 51°55' E 002°47'318.8
2018-Feb-18 05:00N 51°54' E 002°42'137.2 1023.0
2018-Feb-18 04:57N 51°53' E 002°44'1013.2
2018-Feb-18 04:12N 51°46' E 002°33'313.3
2018-Feb-18 04:00N 51°44' E 002°31'2141.8
2018-Feb-18 04:00N 51°42' E 002°30'510.9 1023.1
2018-Feb-18 03:31N 51°38' E 002°24'713.7
2018-Feb-18 03:01N 51°33' E 002°17'3170.1
2018-Feb-18 03:00N 51°36' E 002°18'1020.0 1023.2
2018-Feb-18 02:30N 51°28' E 002°10'713.6
2018-Feb-18 02:00N 51°23' E 002°03'2164.8
2018-Feb-18 02:00N 51°24' E 002°06'919.2 1023.3
2018-Feb-18 01:31N 51°17' E 001°55'713.7
2018-Feb-18 01:01N 51°12' E 001°48'022.8
2018-Feb-18 01:00N 51°12' E 001°48'613.3 1023.1
2018-Feb-18 00:31N 51°07' E 001°42'713.4
2018-Feb-18 00:00N 51°02' E 001°35'2122.1
2018-Feb-18 00:00N 51°00' E 001°36'612.0 1023.2
2018-Feb-17 23:30N 50°57' E 001°28'611.5
2018-Feb-17 23:00N 50°52' E 001°24'2125.7
2018-Feb-17 23:00N 50°54' E 001°24'815.8 1023.3
2018-Feb-17 22:31N 50°47' E 001°22'510.8
2018-Feb-17 22:00N 50°41' E 001°19'162.1
2018-Feb-17 22:00N 50°42' E 001°18'611.9 1023.6
2018-Feb-17 21:29N 50°38' E 001°12'611.5
2018-Feb-17 21:01N 50°34' E 001°05'2121.3
2018-Feb-17 21:00N 50°36' E 001°06'914.1 1023.8
2018-Feb-17 20:20N 50°31' E 000°54'411.7
2018-Feb-17 20:00N 50°30' E 000°48'1178.9 1023.9
2018-Feb-17 19:59N 50°29' E 000°48'611.2
2018-Feb-17 19:25N 50°28' E 000°39'511.0
2018-Feb-17 19:00N 50°27' E 000°32'3426.7
2018-Feb-17 19:00N 50°30' E 000°30'612.8 1023.9
2018-Feb-17 18:30N 50°25' E 000°24'510.4
2018-Feb-17 18:01N 50°24' E 000°16'186.4
2018-Feb-17 18:00N 50°24' E 000°18'713.5 1023.4
2018-Feb-17 17:31N 50°22' E 000°08'510.0
2018-Feb-17 17:00N 50°21' E 000°01'3275.9
2018-Feb-17 17:00N 50°18' E 000°00'5 9.4 1022.8
2018-Feb-17 16:31N 50°19' W 000°07'5 9.6
2018-Feb-17 16:00N 50°18' W 000°14'178.0
2018-Feb-17 16:00N 50°18' W 000°12'612.1 1022.3
2018-Feb-17 15:30N 50°17' W 000°21'5 9.2
2018-Feb-17 15:00N 50°16' W 000°28'3327.3
2018-Feb-17 15:00N 50°18' W 000°30'5 9.5 1022.3
2018-Feb-17 14:27N 50°14' W 000°36'4 9.4
2018-Feb-17 14:00N 50°13' W 000°42'1158.7
2018-Feb-17 14:00N 50°12' W 000°42'8 7.7 1022.0
2018-Feb-17 13:00N 50°12' W 000°54'1014.7 1022.2
2018-Feb-17 12:21N 50°09' W 001°08'410.5
2018-Feb-17 12:00N 50°06' W 001°12'419.8 1021.9
2018-Feb-17 11:49N 50°07' W 001°18'412.7
2018-Feb-17 11:30N 50°06' W 001°23'713.1
2018-Feb-17 11:01N 50°04' W 001°33'3171.0
2018-Feb-17 11:00N 50°06' W 001°30'919.6 1021.6
2018-Feb-17 10:30N 50°02' W 001°43'714.5
2018-Feb-17 10:01N 50°00' W 001°54'015.5
2018-Feb-17 10:00N 50°00' W 001°54'816.5 1021.0
2018-Feb-17 09:31N 49°58' W 002°06'916.9
2018-Feb-17 09:00N 49°54' W 002°18'715.3 1020.5
2018-Feb-17 08:30N 49°54' W 002°30'714.9
2018-Feb-17 08:00N 49°52' W 002°41'2139.7
2018-Feb-17 08:00N 49°54' W 002°42'715.0 1020.3
2018-Feb-17 07:30N 49°50' W 002°52'714.2
2018-Feb-17 07:00N 49°46' W 003°01'2298.0
2018-Feb-17 07:00N 49°48' W 003°00'1116.3 1019.8
2018-Feb-17 06:18N 49°41' W 003°14'3 8.6
2018-Feb-17 06:00N 49°42' W 003°18'1716.7 1019.3
2018-Feb-17 05:00N 49°30' W 003°36'1313.2 1019.2
2018-Feb-17 04:00N 49°24' W 003°54'1313.2 1019.0
2018-Feb-17 03:00N 49°18' W 004°12'1313.2 1019.1
2018-Feb-17 02:00N 49°12' W 004°30'1313.2 1019.0
2018-Feb-17 01:00N 49°06' W 004°48'1 3.8 1018.6
2018-Feb-17 00:47N 49°05' W 004°47'411.1
2018-Feb-17 00:28N 49°04' W 004°52'613.5
2018-Feb-17 00:00N 49°00' W 005°00'115.8 1019.0
2018-Feb-16 23:56N 49°01' W 004°59'510.5
2018-Feb-16 23:30N 48°58' W 005°06'510.3
2018-Feb-16 23:00N 48°56' W 005°12'2906.1
2018-Feb-16 23:00N 48°54' W 005°12'8 9.6 1019.2
2018-Feb-16 22:12N 48°52' W 005°23'417.8
2018-Feb-16 22:00N 48°48' W 005°24'356.4 1019.6
2018-Feb-16 21:56N 48°50' W 005°27'510.6
2018-Feb-16 21:30N 48°48' W 005°33'612.0
2018-Feb-16 21:00N 48°48' W 005°42'4113.9 1020.0
2018-Feb-16 20:57N 48°44' W 005°39'711.0
2018-Feb-16 20:18N 48°38' W 005°45'3 9.8
2018-Feb-16 20:00N 48°36' W 005°48'1414.4 1019.3
2018-Feb-16 19:00N 48°24' W 006°00'2 5.6 1019.0
2018-Feb-16 18:38N 48°23' W 006°03'312.2
2018-Feb-16 18:24N 48°22' W 006°06'512.9
2018-Feb-16 18:00N 48°18' W 006°12'112.6 1019.2
2018-Feb-16 17:54N 48°18' W 006°14'712.8
2018-Feb-16 17:20N 48°13' W 006°22'515.5
2018-Feb-16 17:00N 48°12' W 006°30'1010.0 1018.5
2018-Feb-16 16:00N 48°06' W 006°42'1717.0 1018.8
2018-Feb-16 15:00N 47°54' W 007°00'1313.5 1018.1
2018-Feb-16 14:00N 47°48' W 007°18'1010.1 1018.8
2018-Feb-16 13:00N 47°42' W 007°30'1717.1 1020.4
2018-Feb-16 12:00N 47°30' W 007°48'1010.1 1021.2
2018-Feb-16 11:00N 47°24' W 008°00'1717.1 1020.8
2018-Feb-16 10:00N 47°12' W 008°18'1413.6 1021.9
2018-Feb-16 09:00N 47°06' W 008°36'1717.2 1021.7
2018-Feb-16 08:00N 46°54' W 008°54'2020.3 1021.2
2018-Feb-16 07:00N 46°42' W 009°18'1413.7 1020.1
2018-Feb-16 06:00N 46°36' W 009°36'1717.2 1020.8
2018-Feb-16 05:00N 46°24' W 009°54'1717.3 1021.2
2018-Feb-16 04:00N 46°12' W 010°12'1413.8 1022.1
2018-Feb-16 03:00N 46°06' W 010°30'1717.3 1021.7
2018-Feb-16 02:00N 45°54' W 010°48'2120.6 1021.8
2018-Feb-16 01:00N 45°42' W 011°12'1010.3 1022.2
2018-Feb-16 00:00N 45°36' W 011°24'2120.7 1022.3
2018-Feb-15 23:00N 45°24' W 011°48'1514.7 1022.2
2018-Feb-15 22:00N 45°12' W 012°00'1818.0 1021.8
2018-Feb-15 21:00N 45°06' W 012°24'1717.5 1021.7
2018-Feb-15 20:00N 44°54' W 012°42'1514.7 1021.6
2018-Feb-15 19:00N 44°42' W 012°54'1817.6 1021.6
2018-Feb-15 18:00N 44°30' W 013°12'1817.6 1020.2
2018-Feb-15 17:00N 44°18' W 013°30'1414.2 1019.5
2018-Feb-15 16:00N 44°12' W 013°48'1817.6 1019.0
2018-Feb-15 15:00N 44°00' W 014°06'1817.7 1018.6
2018-Feb-15 14:00N 43°48' W 014°24'1817.7 1018.6
2018-Feb-15 13:00N 43°36' W 014°42'1817.7 1019.0
2018-Feb-15 12:00N 43°24' W 015°00'1817.8 300 / 111019.210.8 16.114.513.0
2018-Feb-15 11:00N 43°12' W 015°18'1918.5 1019.1
2018-Feb-15 10:00N 43°06' W 015°42'3617.8 1017.9
2018-Feb-15 08:00N 42°42' W 016°18'1918.6 1016.4
2018-Feb-15 07:00N 42°36' W 016°42'1817.9 1015.9
2018-Feb-15 06:00N 42°24' W 017°00'2121.4 1015.4
2018-Feb-15 05:00N 42°12' W 017°24'1918.8 1014.1
2018-Feb-15 04:00N 42°06' W 017°48'1817.8 1013.5
2018-Feb-15 03:00N 42°06' W 018°12'1918.8 1013.4
2018-Feb-15 02:00N 42°00' W 018°36'1918.8 1013.6
2018-Feb-15 01:00N 41°54' W 019°00'1918.9 1013.7
2018-Feb-15 00:00N 41°48' W 019°24'1817.9 1013.7
2018-Feb-14 23:00N 41°48' W 019°48'1918.9 1013.5
2018-Feb-14 22:00N 41°42' W 020°12'1817.9 1013.4
2018-Feb-14 21:00N 41°42' W 020°36'1918.9 1012.8
2018-Feb-14 20:00N 41°36' W 021°00'1817.9 1012.7
2018-Feb-14 19:00N 41°36' W 021°24'2323.2 1011.6
2018-Feb-14 18:00N 41°30' W 021°54'1818.0 1010.9
2018-Feb-14 17:00N 41°30' W 022°18'1818.0 1010.7
2018-Feb-14 16:00N 41°30' W 022°42'1818.0 1010.0
2018-Feb-14 15:00N 41°30' W 023°06'1818.0 1009.5
2018-Feb-14 14:00N 41°30' W 023°30'1818.0 1010.0
2018-Feb-14 13:00N 41°30' W 023°54'2222.5 1009.8
2018-Feb-14 12:00N 41°30' W 024°24'1818.0 250 / 261009.310.8 16.614.214.0
2018-Feb-14 11:00N 41°30' W 024°48'1919.0 1009.4
2018-Feb-14 10:00N 41°24' W 025°12'2323.3 1009.0
2018-Feb-14 09:00N 41°30' W 025°42'1818.0 1008.9
2018-Feb-14 08:00N 41°30' W 026°06'1818.0 1008.0
2018-Feb-14 07:00N 41°30' W 026°30'2222.5 1008.0
2018-Feb-14 06:00N 41°30' W 027°00'1918.9 1008.0
2018-Feb-14 05:00N 41°36' W 027°24'1817.9 1008.4
2018-Feb-14 04:00N 41°36' W 027°48'2222.4 1008.4
2018-Feb-14 03:00N 41°36' W 028°18'1817.9 1008.5
2018-Feb-14 02:00N 41°36' W 028°42'1918.9 1009.0
2018-Feb-14 01:00N 41°42' W 029°06'2222.4 1009.5
2018-Feb-14 00:00N 41°42' W 029°36'1817.9 1009.9
2018-Feb-13 23:00N 41°42' W 030°00'1817.9 1010.4
2018-Feb-13 22:00N 41°42' W 030°24'1918.9 1010.5
2018-Feb-13 21:00N 41°48' W 030°48'2222.4 1010.6
2018-Feb-13 20:00N 41°48' W 031°18'1817.9 1010.7
2018-Feb-13 19:00N 41°48' W 031°42'2222.4 1011.0
2018-Feb-13 18:00N 41°48' W 032°12'1918.9 1011.0
2018-Feb-13 17:00N 41°54' W 032°36'1817.9 1011.3
2018-Feb-13 16:00N 41°54' W 033°00'2222.3 1011.9
2018-Feb-13 15:00N 41°54' W 033°30'1817.9 1012.7
2018-Feb-13 14:00N 41°54' W 033°54'1817.9 1013.5
2018-Feb-13 13:00N 41°54' W 034°18'2323.1 1014.6
2018-Feb-13 12:00N 42°00' W 034°48'1817.8 1015.1
2018-Feb-13 11:00N 42°00' W 035°12'1817.8 1015.3
2018-Feb-13 10:00N 42°00' W 035°36'2323.1 1015.6
2018-Feb-13 09:00N 42°06' W 036°06'1817.8 1015.6
2018-Feb-13 08:00N 42°06' W 036°30'1817.8 1015.7
2018-Feb-13 07:00N 42°06' W 036°54'2323.0 1016.0
2018-Feb-13 06:00N 42°12' W 037°24'1817.8 1016.7
2018-Feb-13 05:00N 42°12' W 037°48'2222.2 1017.5
2018-Feb-13 04:00N 42°12' W 038°18'1817.8 1018.1
2018-Feb-13 03:00N 42°12' W 038°42'2323.0 1019.0
2018-Feb-13 02:00N 42°18' W 039°12'1817.8 1019.7
2018-Feb-13 01:00N 42°18' W 039°36'1817.8 1020.4
2018-Feb-13 00:00N 42°18' W 040°00'2222.2 1021.2
2018-Feb-12 23:00N 42°18' W 040°30'2323.0 1022.0
2018-Feb-12 22:00N 42°24' W 041°00'1817.7 1021.7
2018-Feb-12 21:00N 42°24' W 041°24'2222.2 1022.1
2018-Feb-12 20:00N 42°24' W 041°54'1918.7 1022.3
2018-Feb-12 19:00N 42°30' W 042°18'2222.1 1022.6
2018-Feb-12 18:00N 42°30' W 042°48'1817.7 1022.8
2018-Feb-12 17:00N 42°30' W 043°12'2322.9 1023.1
2018-Feb-12 16:00N 42°36' W 043°42'   1023.5
Track history (hours):
 
Tides and Currents Weather Stations Pressure Air Temp Water Temp Dewpoint Dewpoint Depression Visibility Wind Speed Wind Dir Waves Ship Positions

Maersk Palermo

Last reported at 2018-Feb-22 15:00 UTC. Time now 2018-Feb-22 15:15 UTC.
Position N 51°22' E 004°14'.

Length 210 m; beam 32 m.

Type: Ship (hazmat cat B). MMSI: 244118000.

Date/timePositionNaut miles runAvg speedWind from/ knotsBaromVisibWave heightAir tempDewpointWater temp
2018-Feb-22 15:00N 51°22' E 004°14'2 3.4
2018-Feb-22 14:30N 51°21' E 004°16'3 6.3
2018-Feb-22 14:00N 51°24' E 004°18'3433.6 1021.9
2018-Feb-22 13:59N 51°21' E 004°16'0 0.0
2018-Feb-22 13:30N 51°21' E 004°16'0 0.0
2018-Feb-22 13:01N 51°21' E 004°16'3192.0
2018-Feb-22 13:00N 51°24' E 004°18'3 6.7 1022.9
2018-Feb-22 12:30N 51°21' E 004°16'0 0.0
2018-Feb-22 12:00N 51°21' E 004°16'3220.9
2018-Feb-22 12:00N 51°24' E 004°18'3 6.6 1023.4
2018-Feb-22 11:30N 51°21' E 004°16'3 6.5
2018-Feb-22 11:00N 51°24' E 004°18'3106.5 1023.6
2018-Feb-22 10:58N 51°21' E 004°16'0 0.0
2018-Feb-22 10:30N 51°21' E 004°16'0 0.0
2018-Feb-22 10:00N 51°21' E 004°16'32345.2
2018-Feb-22 10:00N 51°24' E 004°18'3 6.3 1023.6
2018-Feb-22 09:29N 51°21' E 004°16'0 0.0
2018-Feb-22 09:00N 51°21' E 004°16'3732.0
2018-Feb-22 09:00N 51°24' E 004°18'3 6.7 1023.5
2018-Feb-22 08:31N 51°21' E 004°16'3 6.3
2018-Feb-22 08:00N 51°24' E 004°18'3167.5 1023.4
2018-Feb-22 07:58N 51°21' E 004°16'0 0.0
2018-Feb-22 07:30N 51°21' E 004°16'3 6.4
2018-Feb-22 07:00N 51°24' E 004°18'3155.9 1022.9
2018-Feb-22 06:58N 51°21' E 004°16'0 0.0
2018-Feb-22 06:30N 51°21' E 004°16'0 0.0
2018-Feb-22 06:01N 51°21' E 004°16'3188.4
2018-Feb-22 06:00N 51°24' E 004°18'3 6.2 1022.5
2018-Feb-22 05:28N 51°21' E 004°16'0 0.0
2018-Feb-22 05:01N 51°21' E 004°16'3188.7
2018-Feb-22 05:00N 51°24' E 004°18'3 6.4 1022.5
2018-Feb-22 04:29N 51°21' E 004°16'3 6.7
2018-Feb-22 04:00N 51°24' E 004°18'3229.5 1022.6
2018-Feb-22 03:59N 51°21' E 004°16'0 0.0
2018-Feb-22 03:31N 51°21' E 004°16'0 0.0
2018-Feb-22 03:00N 51°21' E 004°16'3201.9
2018-Feb-22 03:00N 51°24' E 004°18'3 6.7 1022.7
2018-Feb-22 02:31N 51°21' E 004°16'0 0.0
2018-Feb-22 02:00N 51°21' E 004°16'3209.1
2018-Feb-22 02:00N 51°24' E 004°18'3 6.7 1023.0
2018-Feb-22 01:30N 51°21' E 004°16'0 0.0
2018-Feb-22 01:00N 51°21' E 004°16'3272.2
2018-Feb-22 01:00N 51°24' E 004°18'4 7.5 1023.3
2018-Feb-22 00:30N 51°21' E 004°14'3 6.7
2018-Feb-22 00:00N 51°23' E 004°10'2103.9
2018-Feb-22 00:00N 51°24' E 004°12'612.8 1023.4
2018-Feb-21 23:30N 51°23' E 004°02'3 6.0
2018-Feb-21 23:00N 51°24' E 003°57'2138.7
2018-Feb-21 23:00N 51°24' E 004°00'714.8 1023.7
2018-Feb-21 22:30N 51°21' E 003°50'612.3
2018-Feb-21 22:00N 51°25' E 003°42'147.2
2018-Feb-21 22:00N 51°24' E 003°42'510.5 1024.1
2018-Feb-21 21:30N 51°26' E 003°34'5 9.5
2018-Feb-21 21:00N 51°25' E 003°27'2152.3
2018-Feb-21 21:00N 51°24' E 003°24'510.5 1023.8
2018-Feb-21 20:31N 51°24' E 003°16'714.3
2018-Feb-21 20:00N 51°24' E 003°04'161.6
2018-Feb-21 20:00N 51°24' E 003°06'612.4 1023.6
2018-Feb-21 19:30N 51°30' E 003°02'815.9
2018-Feb-21 19:00N 51°36' E 003°10'184.3
2018-Feb-21 19:00N 51°36' E 003°12'815.0 1024.2
2018-Feb-21 18:29N 51°44' E 003°13'510.8
2018-Feb-21 18:00N 51°48' E 003°18'314.9 1024.2
2018-Feb-21 17:48N 51°50' E 003°15'1 2.2
2018-Feb-21 17:28N 51°51' E 003°14'0 0.6
2018-Feb-21 17:00N 51°50' E 003°14'3177.9
2018-Feb-21 17:00N 51°48' E 003°12'2 4.3 1023.9
2018-Feb-21 16:28N 51°50' E 003°14'510.0
2018-Feb-21 16:00N 51°54' E 003°18'6 6.0 1024.2
2018-Feb-21 15:00N 52°00' E 003°18'812.4 1024.3
2018-Feb-21 14:19N 52°03' E 003°31'413.8
2018-Feb-21 14:00N 52°06' E 003°36'3262.7 1024.9
2018-Feb-21 13:59N 52°03' E 003°37'612.0
2018-Feb-21 13:30N 52°03' E 003°46'510.7
2018-Feb-21 13:00N 52°02' E 003°55'2165.1
2018-Feb-21 13:00N 52°00' E 003°54'714.8 1025.6
2018-Feb-21 12:30N 51°58' E 004°05'2 3.5
2018-Feb-21 12:00N 52°00' E 004°06'31127.5 1025.6
2018-Feb-21 11:59N 51°58' E 004°03'0 0.0
2018-Feb-21 11:29N 51°58' E 004°03'3 6.3
2018-Feb-21 11:00N 52°00' E 004°06'3943.7 1025.9
2018-Feb-21 10:59N 51°57' E 004°03'0 0.0
2018-Feb-21 10:29N 51°57' E 004°03'3 6.3
2018-Feb-21 10:00N 52°00' E 004°06'3871.9 1026.3
2018-Feb-21 09:59N 51°57' E 004°03'0 0.0
2018-Feb-21 09:29N 51°57' E 004°03'3 6.3
2018-Feb-21 09:00N 52°00' E 004°06'3754.4 1026.0
2018-Feb-21 08:59N 51°57' E 004°03'0 0.0
2018-Feb-21 08:29N 51°57' E 004°03'3 6.3
2018-Feb-21 08:00N 52°00' E 004°06'3706.9 1025.6
2018-Feb-21 07:59N 51°57' E 004°03'0 0.0
2018-Feb-21 07:29N 51°57' E 004°03'3 6.4
2018-Feb-21 07:00N 52°00' E 004°06'3628.9 1025.1
2018-Feb-21 06:59N 51°57' E 004°03'0 0.0
2018-Feb-21 06:29N 51°57' E 004°03'3 6.3
2018-Feb-21 06:00N 52°00' E 004°06'3565.9 1025.0
2018-Feb-21 05:59N 51°57' E 004°03'0 0.0
2018-Feb-21 05:29N 51°57' E 004°03'3 6.4
2018-Feb-21 05:00N 52°00' E 004°06'3514.7 1024.9
2018-Feb-21 04:59N 51°57' E 004°03'0 0.0
2018-Feb-21 04:29N 51°57' E 004°03'3 6.4
2018-Feb-21 04:00N 52°00' E 004°06'3471.2 1024.8
2018-Feb-21 03:59N 51°57' E 004°03'0 0.0
2018-Feb-21 03:29N 51°57' E 004°03'3 6.4
2018-Feb-21 03:00N 52°00' E 004°06'3434.1 1024.7
2018-Feb-21 02:59N 51°58' E 004°03'0 0.0
2018-Feb-21 02:29N 51°57' E 004°03'3 6.4
2018-Feb-21 02:00N 52°00' E 004°06'3418.6 1024.2
2018-Feb-21 01:59N 51°57' E 004°03'0 0.0
2018-Feb-21 01:29N 51°57' E 004°03'3 6.4
2018-Feb-21 01:00N 52°00' E 004°06'3377.3 1024.0
2018-Feb-21 00:59N 51°57' E 004°03'0 0.0
2018-Feb-21 00:29N 51°57' E 004°03'3 6.4
2018-Feb-21 00:00N 52°00' E 004°06'3364.6 1023.7
2018-Feb-20 23:59N 51°57' E 004°03'0 0.0
2018-Feb-20 23:29N 51°57' E 004°03'3 6.4
2018-Feb-20 23:00N 52°00' E 004°06'3354.2 1023.7
2018-Feb-20 22:59N 51°57' E 004°03'0 0.0
2018-Feb-20 22:29N 51°57' E 004°03'3 6.4
2018-Feb-20 22:00N 52°00' E 004°06'3332.2 1023.2
2018-Feb-20 21:59N 51°58' E 004°03'0 0.1
2018-Feb-20 21:29N 51°57' E 004°03'0 0.0
2018-Feb-20 21:00N 51°58' E 004°03'3205.1
2018-Feb-20 21:00N 52°00' E 004°06'2 4.3 1022.5
2018-Feb-20 20:31N 51°58' E 004°05'612.0
2018-Feb-20 20:01N 52°01' E 003°56'294.9
2018-Feb-20 20:00N 52°00' E 003°54'4 8.9 1020.9
2018-Feb-20 19:30N 52°02' E 003°48'612.5
2018-Feb-20 19:00N 52°08' E 003°46'2127.9
2018-Feb-20 19:00N 52°06' E 003°48'817.3 1021.1
2018-Feb-20 18:30N 52°14' E 003°46'611.7
2018-Feb-20 18:00N 52°20' E 003°48'2134.2
2018-Feb-20 18:00N 52°18' E 003°48'815.9 1020.5
2018-Feb-20 17:30N 52°26' E 003°50'1020.9
2018-Feb-20 17:00N 52°36' E 003°54'3350.3 1020.1
2018-Feb-20 16:59N 52°33' E 003°52'917.4
2018-Feb-20 16:28N 52°42' E 003°55'818.1
2018-Feb-20 16:00N 52°50' E 003°58'41125.9
2018-Feb-20 16:00N 52°54' E 004°00'712.1 1019.5
2018-Feb-20 15:24N 52°60' E 004°06'820.3
2018-Feb-20 15:00N 53°06' E 004°16'193.4
2018-Feb-20 15:00N 53°06' E 004°18'1319.3 1019.7
2018-Feb-20 14:18N 53°18' E 004°29'620.5
2018-Feb-20 14:00N 53°23' E 004°33'2117.1
2018-Feb-20 14:00N 53°24' E 004°36'816.6 1019.6
2018-Feb-20 13:30N 53°30' E 004°45'1020.0
2018-Feb-20 13:01N 53°34' E 005°01'2129.2
2018-Feb-20 13:00N 53°36' E 005°00'1019.8 1019.5
2018-Feb-20 12:30N 53°37' E 005°16'918.5
2018-Feb-20 12:00N 53°42' E 005°30'1918.7 1019.4
2018-Feb-20 11:00N 53°48' E 006°00'1918.7 1019.4
2018-Feb-20 10:00N 53°54' E 006°30'1817.7 1019.2
2018-Feb-20 09:00N 53°54' E 007°00'2222.0 1018.9
2018-Feb-20 08:00N 54°00' E 007°36'1 8.5 1018.9
2018-Feb-20 07:56N 53°59' E 007°36'1017.4
2018-Feb-20 07:22N 53°53' E 007°48'513.9
2018-Feb-20 07:00N 53°52' E 007°56'3222.8
2018-Feb-20 07:00N 53°54' E 008°00'917.9 1019.4
2018-Feb-20 06:30N 53°47' E 008°09'918.3
2018-Feb-20 06:00N 53°41' E 008°21'2131.7
2018-Feb-20 06:00N 53°42' E 008°18'1020.2 1018.8
2018-Feb-20 05:30N 53°36' E 008°31'1 1.0
2018-Feb-20 05:00N 53°35' E 008°31'179.8
2018-Feb-20 05:00N 53°36' E 008°30'1 2.0 1018.6
2018-Feb-20 04:30N 53°35' E 008°31'0 0.0
2018-Feb-20 04:00N 53°35' E 008°31'181.6
2018-Feb-20 04:00N 53°36' E 008°30'1 2.0 1018.5
2018-Feb-20 03:30N 53°35' E 008°31'0 0.0
2018-Feb-20 03:00N 53°35' E 008°31'187.7
2018-Feb-20 03:00N 53°36' E 008°30'1 2.0 1018.3
2018-Feb-20 02:30N 53°35' E 008°31'0 0.0
2018-Feb-20 02:00N 53°35' E 008°31'192.4
2018-Feb-20 02:00N 53°36' E 008°30'1 2.0 1018.2
2018-Feb-20 01:30N 53°35' E 008°31'0 0.0
2018-Feb-20 01:00N 53°35' E 008°31'194.8
2018-Feb-20 01:00N 53°36' E 008°30'1 2.0 1018.3
2018-Feb-20 00:30N 53°35' E 008°31'0 0.0
2018-Feb-20 00:00N 53°35' E 008°31'1100.1
2018-Feb-20 00:00N 53°36' E 008°30'1 2.0 1018.6
2018-Feb-19 23:30N 53°35' E 008°31'0 0.0
2018-Feb-19 23:00N 53°35' E 008°31'1102.9
2018-Feb-19 23:00N 53°36' E 008°30'1 2.0 1018.4
2018-Feb-19 22:30N 53°35' E 008°31'0 0.0
2018-Feb-19 22:00N 53°35' E 008°31'1109.7
2018-Feb-19 22:00N 53°36' E 008°30'1 1.6 1018.5
2018-Feb-19 21:24N 53°35' E 008°31'0 0.0
2018-Feb-19 21:00N 53°35' E 008°31'1117.1
2018-Feb-19 21:00N 53°36' E 008°30'1 2.0 1018.5
2018-Feb-19 20:30N 53°35' E 008°31'1 1.9
2018-Feb-19 20:00N 53°36' E 008°30'123.2 1018.6
2018-Feb-19 19:57N 53°35' E 008°31'0 0.0
2018-Feb-19 19:30N 53°35' E 008°31'0 0.0
2018-Feb-19 19:00N 53°35' E 008°31'1129.5
2018-Feb-19 19:00N 53°36' E 008°30'1 2.0 1018.5
2018-Feb-19 18:30N 53°35' E 008°31'0 0.0
2018-Feb-19 18:00N 53°35' E 008°31'1127.3
2018-Feb-19 18:00N 53°36' E 008°30'1 2.0 1018.3
2018-Feb-19 17:30N 53°35' E 008°31'0 0.0
2018-Feb-19 17:00N 53°35' E 008°31'1153.2
2018-Feb-19 17:00N 53°36' E 008°30'1 1.8 1018.0
2018-Feb-19 16:27N 53°35' E 008°31'0 0.1
2018-Feb-19 16:00N 53°35' E 008°31'1170.7
2018-Feb-19 16:00N 53°36' E 008°30'1 2.0 1017.6
2018-Feb-19 15:30N 53°35' E 008°31'0 0.0
2018-Feb-19 15:00N 53°35' E 008°31'1185.0
2018-Feb-19 15:00N 53°36' E 008°30'1 2.0 1017.7
2018-Feb-19 14:30N 53°35' E 008°31'0 0.0
2018-Feb-19 14:00N 53°35' E 008°31'1195.1
2018-Feb-19 14:00N 53°36' E 008°30'1 2.0 1018.2
2018-Feb-19 13:30N 53°35' E 008°31'0 0.1
2018-Feb-19 13:00N 53°36' E 008°31'1213.7
2018-Feb-19 13:00N 53°36' E 008°30'1 1.9 1018.1
2018-Feb-19 12:30N 53°36' E 008°31'0 0.1
2018-Feb-19 12:00N 53°35' E 008°31'1234.0
2018-Feb-19 12:00N 53°36' E 008°30'1 2.0 1018.8
2018-Feb-19 11:30N 53°35' E 008°31'0 0.0
2018-Feb-19 11:00N 53°35' E 008°31'167.3
2018-Feb-19 11:00N 53°36' E 008°30'2 4.2 1019.0
2018-Feb-19 10:30N 53°38' E 008°28'714.3
2018-Feb-19 10:01N 53°42' E 008°19'139.2
2018-Feb-19 10:00N 53°42' E 008°18'917.8 1018.7
2018-Feb-19 09:30N 53°48' E 008°08'816.9
2018-Feb-19 09:00N 53°52' E 007°55'2154.3
2018-Feb-19 09:00N 53°54' E 007°54'611.9 1018.5
2018-Feb-19 08:30N 53°53' E 007°44'5 9.2
2018-Feb-19 08:00N 53°53' E 007°37'1107.3
2018-Feb-19 08:00N 53°54' E 007°36'4 3.5 1018.9
2018-Feb-19 07:00N 53°54' E 007°30'1 2.2 1019.0
2018-Feb-19 06:25N 53°53' E 007°30'1 1.4
2018-Feb-19 06:00N 53°53' E 007°31'2110.6
2018-Feb-19 06:00N 53°54' E 007°30'3 2.9 1019.1
2018-Feb-19 05:06N 53°52' E 007°33'221.2
2018-Feb-19 05:00N 53°54' E 007°36'2 8.9 1018.9
2018-Feb-19 04:46N 53°52' E 007°34'0 1.3
2018-Feb-19 04:31N 53°52' E 007°35'2 3.6
2018-Feb-19 04:00N 53°54' E 007°36'2 2.4 1019.1
2018-Feb-19 03:06N 53°53' E 007°33'0 0.7
2018-Feb-19 03:00N 53°53' E 007°33'2654.5
2018-Feb-19 03:00N 53°54' E 007°36'0 0.0 1019.6
2018-Feb-19 02:00N 53°54' E 007°36'0 0.0 1019.9
2018-Feb-19 01:00N 53°54' E 007°36'7 7.1 1020.4
2018-Feb-19 00:00N 53°54' E 007°24'1515.4 1020.9
2018-Feb-18 23:00N 53°48' E 007°00'1110.6 1021.4
2018-Feb-18 22:00N 53°48' E 006°42'1110.6 1021.7
2018-Feb-18 21:00N 53°48' E 006°24'1212.2 1021.6
2018-Feb-18 20:00N 53°42' E 006°06'1212.2 1021.7
2018-Feb-18 19:00N 53°36' E 005°48'1012.7 1022.0
2018-Feb-18 18:12N 53°35' E 005°31'1 6.4
2018-Feb-18 18:00N 53°36' E 005°30'439.7 1022.4
2018-Feb-18 17:54N 53°34' E 005°25'512.3
2018-Feb-18 17:30N 53°32' E 005°17'611.8
2018-Feb-18 17:00N 53°30' E 005°08'181.2
2018-Feb-18 17:00N 53°30' E 005°06'4 9.2 1022.1
2018-Feb-18 16:31N 53°29' E 004°59'611.0
2018-Feb-18 16:01N 53°26' E 004°51'3154.8
2018-Feb-18 16:00N 53°24' E 004°48'3 6.3 1022.4
2018-Feb-18 15:30N 53°23' E 004°43'510.4
2018-Feb-18 15:00N 53°19' E 004°38'1125.7
2018-Feb-18 15:00N 53°18' E 004°36'4 8.4 1022.6
2018-Feb-18 14:30N 53°14' E 004°33'510.9
2018-Feb-18 14:00N 53°09' E 004°29'3233.2
2018-Feb-18 14:00N 53°12' E 004°30'816.5 1022.6
2018-Feb-18 13:31N 53°05' E 004°25'510.6
2018-Feb-18 13:00N 52°60' E 004°21'910.6
2018-Feb-18 12:06N 52°51' E 004°14'110.4
2018-Feb-18 12:00N 52°50' E 004°13'2795.4
2018-Feb-18 12:00N 52°48' E 004°12'3 5.7 1023.2
2018-Feb-18 11:30N 52°46' E 004°09'510.3
2018-Feb-18 11:00N 52°42' E 004°03'2356.2
2018-Feb-18 11:00N 52°42' E 004°06'613.4 1023.5
2018-Feb-18 10:31N 52°39' E 003°57'510.3
2018-Feb-18 10:01N 52°35' E 003°51'2114.9
2018-Feb-18 10:00N 52°36' E 003°48'510.4 1023.6
2018-Feb-18 09:30N 52°31' E 003°45'510.6
2018-Feb-18 09:01N 52°28' E 003°39'3167.5
2018-Feb-18 09:00N 52°30' E 003°36'713.6 1023.5
2018-Feb-18 08:30N 52°24' E 003°32'611.1
2018-Feb-18 08:00N 52°20' E 003°26'2156.5
2018-Feb-18 08:00N 52°18' E 003°24'4 7.8 1023.5
2018-Feb-18 07:30N 52°16' E 003°19'611.8
2018-Feb-18 07:00N 52°12' E 003°12'014.4
2018-Feb-18 07:00N 52°12' E 003°12'612.5 1023.4
2018-Feb-18 06:29N 52°08' E 003°04'3 6.5
2018-Feb-18 06:00N 52°06' E 003°00'4101.1 1023.0
2018-Feb-18 05:57N 52°03' E 002°57'1012.7
2018-Feb-18 05:09N 51°55' E 002°47'318.8
2018-Feb-18 05:00N 51°54' E 002°42'137.2 1023.0
2018-Feb-18 04:57N 51°53' E 002°44'1013.2
2018-Feb-18 04:12N 51°46' E 002°33'313.3
2018-Feb-18 04:00N 51°44' E 002°31'2141.8
2018-Feb-18 04:00N 51°42' E 002°30'510.9 1023.1
2018-Feb-18 03:31N 51°38' E 002°24'713.7
2018-Feb-18 03:01N 51°33' E 002°17'3170.1
2018-Feb-18 03:00N 51°36' E 002°18'1020.0 1023.2
2018-Feb-18 02:30N 51°28' E 002°10'713.6
2018-Feb-18 02:00N 51°23' E 002°03'2164.8
2018-Feb-18 02:00N 51°24' E 002°06'919.2 1023.3
2018-Feb-18 01:31N 51°17' E 001°55'713.7
2018-Feb-18 01:01N 51°12' E 001°48'022.8
2018-Feb-18 01:00N 51°12' E 001°48'613.3 1023.1
2018-Feb-18 00:31N 51°07' E 001°42'713.4
2018-Feb-18 00:00N 51°02' E 001°35'2122.1
2018-Feb-18 00:00N 51°00' E 001°36'612.0 1023.2
2018-Feb-17 23:30N 50°57' E 001°28'611.5
2018-Feb-17 23:00N 50°52' E 001°24'2125.7
2018-Feb-17 23:00N 50°54' E 001°24'815.8 1023.3
2018-Feb-17 22:31N 50°47' E 001°22'510.8
2018-Feb-17 22:00N 50°41' E 001°19'162.1
2018-Feb-17 22:00N 50°42' E 001°18'611.9 1023.6
2018-Feb-17 21:29N 50°38' E 001°12'611.5
2018-Feb-17 21:01N 50°34' E 001°05'2121.3
2018-Feb-17 21:00N 50°36' E 001°06'914.1 1023.8
2018-Feb-17 20:20N 50°31' E 000°54'411.7
2018-Feb-17 20:00N 50°30' E 000°48'1178.9 1023.9
2018-Feb-17 19:59N 50°29' E 000°48'611.2
2018-Feb-17 19:25N 50°28' E 000°39'511.0
2018-Feb-17 19:00N 50°27' E 000°32'3426.7
2018-Feb-17 19:00N 50°30' E 000°30'612.8 1023.9
2018-Feb-17 18:30N 50°25' E 000°24'510.4
2018-Feb-17 18:01N 50°24' E 000°16'186.4
2018-Feb-17 18:00N 50°24' E 000°18'713.5 1023.4
2018-Feb-17 17:31N 50°22' E 000°08'510.0
2018-Feb-17 17:00N 50°21' E 000°01'3275.9
2018-Feb-17 17:00N 50°18' E 000°00'5 9.4 1022.8
2018-Feb-17 16:31N 50°19' W 000°07'5 9.6
2018-Feb-17 16:00N 50°18' W 000°14'178.0
2018-Feb-17 16:00N 50°18' W 000°12'612.1 1022.3
2018-Feb-17 15:30N 50°17' W 000°21'5 9.2
2018-Feb-17 15:00N 50°16' W 000°28'3327.3
2018-Feb-17 15:00N 50°18' W 000°30'5 9.5 1022.3
2018-Feb-17 14:27N 50°14' W 000°36'4 9.4
2018-Feb-17 14:00N 50°13' W 000°42'1158.7
2018-Feb-17 14:00N 50°12' W 000°42'8 7.7 1022.0
2018-Feb-17 13:00N 50°12' W 000°54'1014.7 1022.2
2018-Feb-17 12:21N 50°09' W 001°08'410.5
2018-Feb-17 12:00N 50°06' W 001°12'419.8 1021.9
2018-Feb-17 11:49N 50°07' W 001°18'412.7
2018-Feb-17 11:30N 50°06' W 001°23'713.1
2018-Feb-17 11:01N 50°04' W 001°33'3171.0
2018-Feb-17 11:00N 50°06' W 001°30'919.6 1021.6
2018-Feb-17 10:30N 50°02' W 001°43'714.5
2018-Feb-17 10:01N 50°00' W 001°54'015.5
2018-Feb-17 10:00N 50°00' W 001°54'816.5 1021.0
2018-Feb-17 09:31N 49°58' W 002°06'916.9
2018-Feb-17 09:00N 49°54' W 002°18'715.3 1020.5
2018-Feb-17 08:30N 49°54' W 002°30'714.9
2018-Feb-17 08:00N 49°52' W 002°41'2139.7
2018-Feb-17 08:00N 49°54' W 002°42'715.0 1020.3
2018-Feb-17 07:30N 49°50' W 002°52'714.2
2018-Feb-17 07:00N 49°46' W 003°01'2298.0
2018-Feb-17 07:00N 49°48' W 003°00'1116.3 1019.8
2018-Feb-17 06:18N 49°41' W 003°14'3 8.6
2018-Feb-17 06:00N 49°42' W 003°18'1716.7 1019.3
2018-Feb-17 05:00N 49°30' W 003°36'1313.2 1019.2
2018-Feb-17 04:00N 49°24' W 003°54'1313.2 1019.0
2018-Feb-17 03:00N 49°18' W 004°12'1313.2 1019.1
2018-Feb-17 02:00N 49°12' W 004°30'1313.2 1019.0
2018-Feb-17 01:00N 49°06' W 004°48'1 3.8 1018.6
2018-Feb-17 00:47N 49°05' W 004°47'411.1
2018-Feb-17 00:28N 49°04' W 004°52'613.5
2018-Feb-17 00:00N 49°00' W 005°00'115.8 1019.0
2018-Feb-16 23:56N 49°01' W 004°59'510.5
2018-Feb-16 23:30N 48°58' W 005°06'510.3
2018-Feb-16 23:00N 48°56' W 005°12'2906.1
2018-Feb-16 23:00N 48°54' W 005°12'8 9.6 1019.2
2018-Feb-16 22:12N 48°52' W 005°23'417.8
2018-Feb-16 22:00N 48°48' W 005°24'356.4 1019.6
2018-Feb-16 21:56N 48°50' W 005°27'510.6
2018-Feb-16 21:30N 48°48' W 005°33'612.0
2018-Feb-16 21:00N 48°48' W 005°42'4113.9 1020.0
2018-Feb-16 20:57N 48°44' W 005°39'711.0
2018-Feb-16 20:18N 48°38' W 005°45'3 9.8
2018-Feb-16 20:00N 48°36' W 005°48'1414.4 1019.3
2018-Feb-16 19:00N 48°24' W 006°00'2 5.6 1019.0
2018-Feb-16 18:38N 48°23' W 006°03'312.2
2018-Feb-16 18:24N 48°22' W 006°06'512.9
2018-Feb-16 18:00N 48°18' W 006°12'112.6 1019.2
2018-Feb-16 17:54N 48°18' W 006°14'712.8
2018-Feb-16 17:20N 48°13' W 006°22'515.5
2018-Feb-16 17:00N 48°12' W 006°30'1010.0 1018.5
2018-Feb-16 16:00N 48°06' W 006°42'1717.0 1018.8
2018-Feb-16 15:00N 47°54' W 007°00'1313.5 1018.1
2018-Feb-16 14:00N 47°48' W 007°18'1010.1 1018.8
2018-Feb-16 13:00N 47°42' W 007°30'1717.1 1020.4
2018-Feb-16 12:00N 47°30' W 007°48'1010.1 1021.2
2018-Feb-16 11:00N 47°24' W 008°00'1717.1 1020.8
2018-Feb-16 10:00N 47°12' W 008°18'1413.6 1021.9
2018-Feb-16 09:00N 47°06' W 008°36'1717.2 1021.7
2018-Feb-16 08:00N 46°54' W 008°54'2020.3 1021.2
2018-Feb-16 07:00N 46°42' W 009°18'1413.7 1020.1
2018-Feb-16 06:00N 46°36' W 009°36'1717.2 1020.8
2018-Feb-16 05:00N 46°24' W 009°54'1717.3 1021.2
2018-Feb-16 04:00N 46°12' W 010°12'1413.8 1022.1
2018-Feb-16 03:00N 46°06' W 010°30'1717.3 1021.7
2018-Feb-16 02:00N 45°54' W 010°48'2120.6 1021.8
2018-Feb-16 01:00N 45°42' W 011°12'1010.3 1022.2
2018-Feb-16 00:00N 45°36' W 011°24'2120.7 1022.3
2018-Feb-15 23:00N 45°24' W 011°48'1514.7 1022.2
2018-Feb-15 22:00N 45°12' W 012°00'1818.0 1021.8
2018-Feb-15 21:00N 45°06' W 012°24'1717.5 1021.7
2018-Feb-15 20:00N 44°54' W 012°42'1514.7 1021.6
2018-Feb-15 19:00N 44°42' W 012°54'1817.6 1021.6
2018-Feb-15 18:00N 44°30' W 013°12'1817.6 1020.2
2018-Feb-15 17:00N 44°18' W 013°30'1414.2 1019.5
2018-Feb-15 16:00N 44°12' W 013°48'1817.6 1019.0
2018-Feb-15 15:00N 44°00' W 014°06'1817.7 1018.6
2018-Feb-15 14:00N 43°48' W 014°24'1817.7 1018.6
2018-Feb-15 13:00N 43°36' W 014°42'1817.7 1019.0
2018-Feb-15 12:00N 43°24' W 015°00'1817.8 300 / 111019.210.8 16.114.513.0
2018-Feb-15 11:00N 43°12' W 015°18'1918.5 1019.1
2018-Feb-15 10:00N 43°06' W 015°42'3617.8 1017.9
2018-Feb-15 08:00N 42°42' W 016°18'1918.6 1016.4
2018-Feb-15 07:00N 42°36' W 016°42'1817.9 1015.9
2018-Feb-15 06:00N 42°24' W 017°00'2121.4 1015.4
2018-Feb-15 05:00N 42°12' W 017°24'1918.8 1014.1
2018-Feb-15 04:00N 42°06' W 017°48'1817.8 1013.5
2018-Feb-15 03:00N 42°06' W 018°12'1918.8 1013.4
2018-Feb-15 02:00N 42°00' W 018°36'1918.8 1013.6
2018-Feb-15 01:00N 41°54' W 019°00'1918.9 1013.7
2018-Feb-15 00:00N 41°48' W 019°24'1817.9 1013.7
2018-Feb-14 23:00N 41°48' W 019°48'1918.9 1013.5
2018-Feb-14 22:00N 41°42' W 020°12'1817.9 1013.4
2018-Feb-14 21:00N 41°42' W 020°36'1918.9 1012.8
2018-Feb-14 20:00N 41°36' W 021°00'1817.9 1012.7
2018-Feb-14 19:00N 41°36' W 021°24'2323.2 1011.6
2018-Feb-14 18:00N 41°30' W 021°54'1818.0 1010.9
2018-Feb-14 17:00N 41°30' W 022°18'1818.0 1010.7
2018-Feb-14 16:00N 41°30' W 022°42'1818.0 1010.0
2018-Feb-14 15:00N 41°30' W 023°06'1818.0 1009.5
2018-Feb-14 14:00N 41°30' W 023°30'1818.0 1010.0
2018-Feb-14 13:00N 41°30' W 023°54'2222.5 1009.8
2018-Feb-14 12:00N 41°30' W 024°24'1818.0 250 / 261009.310.8 16.614.214.0
2018-Feb-14 11:00N 41°30' W 024°48'1919.0 1009.4
2018-Feb-14 10:00N 41°24' W 025°12'2323.3 1009.0
2018-Feb-14 09:00N 41°30' W 025°42'1818.0 1008.9
2018-Feb-14 08:00N 41°30' W 026°06'1818.0 1008.0
2018-Feb-14 07:00N 41°30' W 026°30'2222.5 1008.0
2018-Feb-14 06:00N 41°30' W 027°00'1918.9 1008.0
2018-Feb-14 05:00N 41°36' W 027°24'1817.9 1008.4
2018-Feb-14 04:00N 41°36' W 027°48'2222.4 1008.4
2018-Feb-14 03:00N 41°36' W 028°18'1817.9 1008.5
2018-Feb-14 02:00N 41°36' W 028°42'1918.9 1009.0
2018-Feb-14 01:00N 41°42' W 029°06'2222.4 1009.5
2018-Feb-14 00:00N 41°42' W 029°36'1817.9 1009.9
2018-Feb-13 23:00N 41°42' W 030°00'1817.9 1010.4
2018-Feb-13 22:00N 41°42' W 030°24'1918.9 1010.5
2018-Feb-13 21:00N 41°48' W 030°48'2222.4 1010.6
2018-Feb-13 20:00N 41°48' W 031°18'1817.9 1010.7
2018-Feb-13 19:00N 41°48' W 031°42'2222.4 1011.0
2018-Feb-13 18:00N 41°48' W 032°12'1918.9 1011.0
2018-Feb-13 17:00N 41°54' W 032°36'1817.9 1011.3
2018-Feb-13 16:00N 41°54' W 033°00'2222.3 1011.9
2018-Feb-13 15:00N 41°54' W 033°30'1817.9 1012.7
2018-Feb-13 14:00N 41°54' W 033°54'1817.9 1013.5
2018-Feb-13 13:00N 41°54' W 034°18'2323.1 1014.6
2018-Feb-13 12:00N 42°00' W 034°48'1817.8 1015.1
2018-Feb-13 11:00N 42°00' W 035°12'1817.8 1015.3
2018-Feb-13 10:00N 42°00' W 035°36'2323.1 1015.6
2018-Feb-13 09:00N 42°06' W 036°06'1817.8 1015.6
2018-Feb-13 08:00N 42°06' W 036°30'1817.8 1015.7
2018-Feb-13 07:00N 42°06' W 036°54'2323.0 1016.0
2018-Feb-13 06:00N 42°12' W 037°24'1817.8 1016.7
2018-Feb-13 05:00N 42°12' W 037°48'2222.2 1017.5
2018-Feb-13 04:00N 42°12' W 038°18'1817.8 1018.1
2018-Feb-13 03:00N 42°12' W 038°42'2323.0 1019.0
2018-Feb-13 02:00N 42°18' W 039°12'1817.8 1019.7
2018-Feb-13 01:00N 42°18' W 039°36'1817.8 1020.4
2018-Feb-13 00:00N 42°18' W 040°00'2222.2 1021.2
2018-Feb-12 23:00N 42°18' W 040°30'2323.0 1022.0
2018-Feb-12 22:00N 42°24' W 041°00'1817.7 1021.7
2018-Feb-12 21:00N 42°24' W 041°24'2222.2 1022.1
2018-Feb-12 20:00N 42°24' W 041°54'1918.7 1022.3
2018-Feb-12 19:00N 42°30' W 042°18'2222.1 1022.6
2018-Feb-12 18:00N 42°30' W 042°48'1817.7 1022.8
2018-Feb-12 17:00N 42°30' W 043°12'2322.9 1023.1
2018-Feb-12 16:00N 42°36' W 043°42'   1023.5

Dump ship's entire track history